Time;durP1;ratioP1;P1;durP2;ratioP2;P2;SDS_P1;SDS_P2;PMS_P1;PMS_P2;Temp;Humidity;BMP_temperature;BMP_pressure;BME280_temperature;BME280_humidity;BME280_pressure;Samples;Min_cycle;Max_cycle;Signal;HPM_P1;HPM_P2
2021/03/31 00:01:36;;;;;;;8.50;6.00;;;7.60;82.80;;;;;;5007583;28;20198;-60
2021/03/31 00:04:02;;;;;;;9.00;6.27;;;7.50;82.50;;;;;;5015513;28;20231;-61
2021/03/31 00:06:27;;;;;;;9.83;5.90;;;7.40;82.80;;;;;;5016100;28;20227;-63
2021/03/31 00:08:53;;;;;;;9.77;6.20;;;7.40;83.00;;;;;;5014676;28;21097;-60
2021/03/31 00:11:19;;;;;;;10.27;5.67;;;7.30;83.30;;;;;;5013488;28;20673;-62
2021/03/31 00:13:45;;;;;;;11.80;5.80;;;7.30;84.00;;;;;;5005108;28;20692;-61
2021/03/31 00:16:10;;;;;;;11.30;5.77;;;7.20;84.50;;;;;;5005931;28;20440;-60
2021/03/31 00:18:36;;;;;;;9.20;5.70;;;7.20;85.10;;;;;;5006214;28;20254;-63
2021/03/31 00:21:03;;;;;;;14.17;6.20;;;7.10;85.20;;;;;;4998688;28;20201;-60
2021/03/31 00:23:29;;;;;;;12.27;5.67;;;7.10;85.60;;;;;;4995793;28;20168;-61
2021/03/31 00:25:56;;;;;;;9.00;5.60;;;7.10;85.80;;;;;;5003865;28;21148;-62
2021/03/31 00:28:23;;;;;;;13.77;6.20;;;7.10;86.20;;;;;;5003343;28;20443;-61
2021/03/31 00:30:50;;;;;;;9.10;6.03;;;7.00;87.10;;;;;;5006029;28;20756;-60
2021/03/31 00:33:16;;;;;;;11.33;5.63;;;7.00;86.80;;;;;;4998765;28;22191;-60
2021/03/31 00:35:42;;;;;;;11.83;5.73;;;7.00;86.60;;;;;;5004860;28;20451;-62
2021/03/31 00:38:08;;;;;;;9.20;6.07;;;7.00;86.40;;;;;;5000248;28;20967;-61
2021/03/31 00:40:46;;;;;;;9.53;5.70;;;6.90;86.60;;;;;;5005812;28;20796;-60
2021/03/31 00:43:13;;;;;;;12.73;5.60;;;6.90;87.00;;;;;;5008962;28;20890;-61
2021/03/31 00:45:40;;;;;;;8.23;5.60;;;6.80;86.90;;;;;;5007864;28;20455;-61
2021/03/31 00:48:06;;;;;;;12.40;6.63;;;6.80;87.90;;;;;;4999423;28;20446;-61
2021/03/31 00:50:32;;;;;;;11.43;6.27;;;6.70;88.30;;;;;;5008555;28;20957;-62
2021/03/31 00:52:59;;;;;;;8.93;5.10;;;6.70;88.60;;;;;;5008151;28;21288;-61
2021/03/31 00:55:28;;;;;;;11.30;6.20;;;6.70;88.40;;;;;;5019033;28;20626;-61
2021/03/31 00:57:55;;;;;;;10.73;6.33;;;6.60;88.60;;;;;;5006955;28;20450;-59
2021/03/31 01:00:21;;;;;;;13.13;5.60;;;6.60;89.00;;;;;;5005098;28;20431;-60
2021/03/31 01:02:47;;;;;;;9.50;5.57;;;6.60;89.00;;;;;;5003213;28;20458;-60
2021/03/31 01:05:23;;;;;;;18.30;5.77;;;6.50;89.10;;;;;;5004952;28;20580;-59
2021/03/31 01:07:48;;;;;;;10.60;6.07;;;6.50;90.00;;;;;;5002835;28;20223;-61
2021/03/31 01:10:16;;;;;;;14.03;6.00;;;6.40;90.30;;;;;;5002954;28;21007;-60
2021/03/31 01:13:01;;;;;;;14.80;6.07;;;6.30;90.30;;;;;;5007850;28;20439;-59
2021/03/31 01:15:29;;;;;;;6.93;5.13;;;6.30;90.40;;;;;;5008406;28;20443;-60
2021/03/31 01:17:59;;;;;;;9.37;5.80;;;6.30;90.40;;;;;;5004735;28;20451;-60
2021/03/31 01:20:45;;;;;;;12.93;6.20;;;6.30;90.50;;;;;;5003485;28;20432;-62
2021/03/31 01:23:48;;;;;;;11.97;5.90;;;6.20;90.60;;;;;;5005741;28;20442;-60
2021/03/31 01:26:55;;;;;;;11.63;6.03;;;6.20;90.80;;;;;;5007286;28;20423;-61
2021/03/31 01:29:53;;;;;;;14.27;7.33;;;6.20;90.90;;;;;;4982703;28;20462;-59
2021/03/31 01:32:33;;;;;;;10.20;5.03;;;6.10;90.90;;;;;;4980949;28;20579;-59
2021/03/31 01:35:12;;;;;;;11.83;6.60;;;6.10;91.30;;;;;;4996990;28;20470;-61
2021/03/31 01:38:14;;;;;;;13.00;6.23;;;6.00;91.30;;;;;;5002572;28;20435;-60
2021/03/31 01:40:46;;;;;;;7.90;5.50;;;6.00;91.30;;;;;;5002587;28;20424;-60
2021/03/31 01:43:16;;;;;;;8.27;6.13;;;6.00;91.20;;;;;;5006248;28;20485;-59
2021/03/31 01:45:48;;;;;;;10.17;5.97;;;6.00;91.20;;;;;;5003749;28;20557;-61
2021/03/31 01:48:20;;;;;;;8.90;6.03;;;5.90;91.40;;;;;;5007206;28;20493;-59
2021/03/31 01:50:50;;;;;;;14.47;6.60;;;5.90;91.60;;;;;;5002727;28;20877;-60
2021/03/31 01:53:18;;;;;;;11.90;4.70;;;5.90;91.90;;;;;;5003943;28;20754;-61
2021/03/31 01:55:44;;;;;;;11.40;5.37;;;5.90;92.00;;;;;;5009588;28;20459;-60
2021/03/31 01:58:11;;;;;;;9.43;5.73;;;5.90;91.90;;;;;;5009906;28;20451;-59
2021/03/31 02:00:37;;;;;;;10.40;6.27;;;5.80;91.90;;;;;;5007170;28;20431;-60
2021/03/31 02:03:03;;;;;;;10.37;6.37;;;5.80;91.90;;;;;;5005962;28;20760;-61
2021/03/31 02:05:30;;;;;;;11.10;6.27;;;5.80;92.00;;;;;;5004151;28;20216;-60
2021/03/31 02:07:57;;;;;;;12.30;6.20;;;5.70;91.70;;;;;;5005537;28;20231;-59
2021/03/31 02:10:28;;;;;;;13.23;6.70;;;5.70;91.80;;;;;;4998601;28;20431;-61
2021/03/31 02:12:54;;;;;;;12.20;5.53;;;5.60;91.90;;;;;;5003269;28;20419;-60
2021/03/31 02:15:23;;;;;;;13.77;6.60;;;5.60;92.00;;;;;;5007315;28;20816;-60
2021/03/31 02:17:50;;;;;;;8.47;5.80;;;5.50;92.10;;;;;;5010123;28;20478;-60
2021/03/31 02:20:19;;;;;;;11.43;6.60;;;5.50;92.30;;;;;;4999162;28;20443;-59
2021/03/31 02:22:46;;;;;;;19.97;6.10;;;5.50;92.50;;;;;;4999622;28;20435;-60
2021/03/31 02:25:13;;;;;;;9.67;6.70;;;5.50;92.60;;;;;;4997813;28;20447;-59
2021/03/31 02:27:39;;;;;;;9.13;5.93;;;5.40;92.60;;;;;;5011842;28;20914;-60
2021/03/31 02:30:09;;;;;;;14.50;6.17;;;5.40;92.50;;;;;;5006557;28;20431;-60
2021/03/31 02:32:37;;;;;;;12.33;5.83;;;5.40;92.60;;;;;;5002820;28;20444;-60
2021/03/31 02:35:05;;;;;;;11.00;6.10;;;5.40;92.50;;;;;;5004364;28;20443;-60
2021/03/31 02:37:31;;;;;;;10.93;5.63;;;5.40;92.60;;;;;;5003366;28;20415;-59
2021/03/31 02:39:59;;;;;;;7.10;5.27;;;5.30;92.60;;;;;;5008955;28;20493;-58
2021/03/31 02:42:26;;;;;;;9.60;6.53;;;5.30;92.60;;;;;;5005226;28;20450;-60
2021/03/31 02:44:56;;;;;;;11.23;5.60;;;5.20;92.70;;;;;;5008699;28;20791;-60
2021/03/31 02:47:24;;;;;;;12.73;5.80;;;5.20;92.80;;;;;;5005458;28;20903;-61
2021/03/31 02:49:53;;;;;;;13.00;6.83;;;5.20;92.80;;;;;;5004683;28;20435;-60
2021/03/31 02:52:22;;;;;;;12.10;6.20;;;5.20;92.90;;;;;;5000461;28;20538;-60
2021/03/31 02:54:49;;;;;;;10.30;6.30;;;5.20;93.00;;;;;;5002842;28;20890;-60
2021/03/31 02:57:17;;;;;;;10.00;5.90;;;5.20;92.80;;;;;;5003221;28;20535;-60
2021/03/31 02:59:43;;;;;;;9.10;5.67;;;5.20;92.90;;;;;;5009527;28;20574;-60
2021/03/31 03:02:10;;;;;;;13.43;5.97;;;5.10;93.00;;;;;;5003734;28;20435;-60
2021/03/31 03:04:39;;;;;;;13.10;6.80;;;5.10;93.10;;;;;;5006101;28;20798;-60
2021/03/31 03:07:06;;;;;;;18.73;5.93;;;5.10;93.10;;;;;;5002683;28;20431;-61
2021/03/31 03:09:33;;;;;;;13.00;6.40;;;5.10;93.10;;;;;;5001120;28;20980;-58
2021/03/31 03:12:00;;;;;;;9.63;5.90;;;5.00;93.10;;;;;;5006670;28;20924;-59
2021/03/31 03:14:29;;;;;;;7.93;6.00;;;5.00;93.10;;;;;;5006450;28;20547;-59
2021/03/31 03:16:55;;;;;;;7.57;5.70;;;5.00;93.30;;;;;;5005196;28;20473;-59
2021/03/31 03:19:21;;;;;;;11.50;6.10;;;5.00;93.40;;;;;;5005696;28;20885;-57
2021/03/31 03:21:48;;;;;;;12.00;6.03;;;4.90;93.50;;;;;;5003092;28;20951;-58
2021/03/31 03:24:14;;;;;;;12.37;6.37;;;4.90;93.60;;;;;;4988206;28;20633;-59
2021/03/31 03:26:41;;;;;;;16.63;7.70;;;4.90;93.70;;;;;;5009719;28;20450;-59
2021/03/31 03:29:10;;;;;;;12.77;7.57;;;4.90;93.60;;;;;;5003325;28;20438;-59
2021/03/31 03:31:37;;;;;;;14.83;6.77;;;4.90;93.80;;;;;;4999965;28;20434;-58
2021/03/31 03:34:08;;;;;;;13.40;6.20;;;4.80;94.00;;;;;;5006583;28;20455;-59
2021/03/31 03:36:35;;;;;;;12.53;6.20;;;4.80;94.10;;;;;;5005851;28;20461;-59
2021/03/31 03:39:03;;;;;;;9.80;6.50;;;4.80;94.20;;;;;;5008635;28;20455;-58
2021/03/31 03:41:29;;;;;;;11.27;5.87;;;4.80;94.20;;;;;;4999641;28;20439;-58
2021/03/31 03:43:55;;;;;;;10.30;6.47;;;4.80;94.10;;;;;;5017505;28;20426;-57
2021/03/31 03:46:21;;;;;;;11.13;5.73;;;4.80;93.90;;;;;;4998272;28;20191;-58
2021/03/31 03:48:47;;;;;;;12.10;6.80;;;4.70;93.90;;;;;;5007009;28;20799;-58
2021/03/31 03:51:13;;;;;;;13.10;6.70;;;4.70;94.00;;;;;;4997122;28;20782;-58
2021/03/31 03:53:40;;;;;;;11.07;6.40;;;4.60;94.20;;;;;;5004037;28;20447;-58
2021/03/31 03:56:12;;;;;;;10.33;7.00;;;4.60;94.30;;;;;;5005511;28;20503;-58
2021/03/31 03:58:39;;;;;;;11.60;6.63;;;4.60;94.40;;;;;;5008600;28;20978;-59
2021/03/31 04:01:05;;;;;;;11.40;7.03;;;4.60;94.30;;;;;;4999694;28;20762;-59
2021/03/31 04:03:31;;;;;;;12.87;7.73;;;4.50;94.20;;;;;;5014188;28;20497;-58
2021/03/31 04:05:58;;;;;;;11.40;6.93;;;4.50;94.30;;;;;;5003502;28;20836;-59
2021/03/31 04:08:23;;;;;;;12.23;6.80;;;4.40;94.50;;;;;;5007248;28;20439;-59
2021/03/31 04:10:55;;;;;;;12.50;7.53;;;4.40;94.70;;;;;;5005169;28;20512;-59
2021/03/31 04:13:23;;;;;;;12.43;7.00;;;4.30;94.80;;;;;;5008538;28;20221;-59
2021/03/31 04:15:53;;;;;;;9.87;6.23;;;4.30;94.80;;;;;;5008665;28;20995;-59
2021/03/31 04:18:20;;;;;;;12.67;6.53;;;4.30;94.80;;;;;;5001692;28;20596;-59
2021/03/31 04:20:48;;;;;;;11.90;7.40;;;4.20;94.80;;;;;;5002568;28;20435;-58
2021/03/31 04:23:14;;;;;;;11.33;7.03;;;4.20;95.10;;;;;;5002015;28;20437;-59
2021/03/31 04:25:40;;;;;;;16.33;7.13;;;4.20;95.10;;;;;;5007462;28;20478;-59
2021/03/31 04:28:09;;;;;;;14.13;7.67;;;4.20;95.00;;;;;;5008986;28;20504;-59
2021/03/31 04:30:36;;;;;;;11.43;6.80;;;4.20;94.90;;;;;;5005751;28;20185;-59
2021/03/31 04:33:02;;;;;;;16.83;7.77;;;4.20;94.90;;;;;;5004835;28;20454;-58
2021/03/31 04:35:28;;;;;;;14.37;6.90;;;4.20;95.10;;;;;;5004205;28;20455;-58
2021/03/31 04:38:09;;;;;;;20.93;7.40;;;4.20;95.10;;;;;;5010617;28;20454;-59
2021/03/31 04:40:59;;;;;;;16.17;8.30;;;4.20;95.10;;;;;;5021927;28;20172;-59
2021/03/31 04:43:27;;;;;;;19.80;7.20;;;4.20;95.20;;;;;;5021479;28;20815;-59
2021/03/31 04:46:01;;;;;;;16.63;7.70;;;4.20;95.20;;;;;;5011815;28;20456;-58
2021/03/31 04:48:26;;;;;;;15.97;7.07;;;4.20;94.60;;;;;;5015765;28;20436;-59
2021/03/31 04:50:53;;;;;;;12.97;7.67;;;4.10;94.60;;;;;;4996206;28;20482;-59
2021/03/31 04:53:19;;;;;;;12.40;8.47;;;4.10;94.50;;;;;;4998763;28;20202;-59
2021/03/31 04:55:45;;;;;;;15.03;7.30;;;4.10;94.50;;;;;;5003552;28;20459;-58
2021/03/31 04:58:11;;;;;;;13.70;7.47;;;4.00;94.40;;;;;;5001686;28;20459;-58
2021/03/31 05:00:37;;;;;;;13.07;7.67;;;4.00;94.50;;;;;;5002304;28;20168;-59
2021/03/31 05:03:04;;;;;;;11.13;7.17;;;3.90;94.70;;;;;;4999754;28;20440;-58
2021/03/31 05:05:29;;;;;;;19.47;8.53;;;3.90;94.80;;;;;;5026129;22;20672;-61
2021/03/31 05:07:55;;;;;;;12.70;7.60;;;3.90;94.90;;;;;;5001904;28;20997;-63
2021/03/31 05:10:21;;;;;;;12.83;7.83;;;3.90;95.00;;;;;;5001491;28;20689;-65
2021/03/31 05:12:46;;;;;;;31.07;7.80;;;3.80;95.40;;;;;;5007700;28;20229;-63
2021/03/31 05:15:12;;;;;;;14.13;7.17;;;3.80;95.50;;;;;;5009656;28;20225;-62
2021/03/31 05:17:38;;;;;;;12.97;7.40;;;3.90;95.50;;;;;;5003868;28;20191;-62
2021/03/31 05:20:05;;;;;;;19.43;8.03;;;3.90;95.60;;;;;;5007146;28;20435;-61
2021/03/31 05:22:30;;;;;;;15.53;7.40;;;3.90;95.80;;;;;;5002753;28;20688;-63
2021/03/31 05:24:56;;;;;;;16.93;7.20;;;3.90;95.90;;;;;;5016526;28;20435;-63
2021/03/31 05:27:22;;;;;;;13.37;7.77;;;3.90;95.80;;;;;;5007717;28;20447;-62
2021/03/31 05:29:48;;;;;;;16.53;7.97;;;3.90;95.90;;;;;;5006748;28;20661;-66
2021/03/31 05:32:14;;;;;;;20.87;7.80;;;3.90;96.00;;;;;;5005524;28;20434;-67
2021/03/31 05:34:40;;;;;;;15.23;8.00;;;3.90;96.20;;;;;;5021483;28;20446;-64
2021/03/31 05:37:06;;;;;;;13.63;7.63;;;3.90;96.10;;;;;;5000783;28;20201;-59
2021/03/31 05:39:32;;;;;;;13.33;7.37;;;3.90;96.20;;;;;;5001952;28;20207;-62
2021/03/31 05:41:58;;;;;;;21.20;7.87;;;4.00;96.30;;;;;;4999614;28;21104;-61
2021/03/31 05:44:25;;;;;;;16.60;8.40;;;4.00;96.40;;;;;;5011345;28;20189;-62
2021/03/31 05:46:52;;;;;;;14.17;7.20;;;4.00;96.40;;;;;;5015599;28;20451;-62
2021/03/31 05:49:17;;;;;;;11.13;7.30;;;4.00;96.50;;;;;;4999841;28;20947;-62
2021/03/31 05:51:43;;;;;;;10.90;7.63;;;4.10;96.40;;;;;;4997148;28;20439;-62
2021/03/31 05:54:09;;;;;;;11.70;7.20;;;4.10;96.00;;;;;;4997128;28;20183;-61
2021/03/31 05:56:36;;;;;;;16.47;10.27;;;4.20;95.70;;;;;;4996530;28;20282;-62
2021/03/31 05:59:05;;;;;;;21.57;11.53;;;4.30;95.40;;;;;;4995733;28;20459;-62
2021/03/31 06:01:32;;;;;;;17.23;9.20;;;4.40;95.40;;;;;;4992896;28;20495;-62
2021/03/31 06:03:58;;;;;;;14.30;8.40;;;4.40;95.20;;;;;;4998602;28;20461;-62
2021/03/31 06:06:25;;;;;;;19.90;8.13;;;4.50;95.10;;;;;;4997992;28;20519;-61
2021/03/31 06:08:51;;;;;;;12.00;7.10;;;4.60;95.30;;;;;;4997677;28;20427;-62
2021/03/31 06:11:18;;;;;;;20.93;8.60;;;4.70;95.10;;;;;;5018533;28;20438;-63
2021/03/31 06:13:49;;;;;;;19.20;8.03;;;4.80;94.90;;;;;;5004275;28;20549;-62
2021/03/31 06:16:37;;;;;;;12.90;7.83;;;4.90;94.80;;;;;;4999303;28;20461;-62
2021/03/31 06:19:22;;;;;;;18.20;7.70;;;5.00;94.80;;;;;;5006847;28;20468;-62
2021/03/31 06:25:08;;;;;;;14.40;8.33;;;5.20;94.50;;;;;;5002058;28;20431;-60
2021/03/31 06:27:34;;;;;;;14.03;9.20;;;5.30;94.10;;;;;;5002566;28;20427;-62
2021/03/31 06:30:05;;;;;;;13.90;8.00;;;5.40;93.90;;;;;;4996107;28;21269;-61
2021/03/31 06:32:39;;;;;;;13.30;7.60;;;5.40;93.70;;;;;;5004698;28;20432;-61
2021/03/31 06:35:06;;;;;;;17.70;7.87;;;5.40;93.80;;;;;;5020345;28;20500;-62
2021/03/31 06:37:36;;;;;;;18.50;7.87;;;5.50;93.80;;;;;;5005591;28;20435;-62
2021/03/31 06:40:04;;;;;;;16.50;7.50;;;5.60;93.60;;;;;;5003785;28;20443;-62
2021/03/31 06:42:40;;;;;;;14.00;8.40;;;5.70;93.70;;;;;;4996677;28;20518;-62
2021/03/31 06:45:12;;;;;;;;;;;;;;;;;;;;;
2021/03/31 06:50:09;;;;;;;15.00;8.30;;;6.00;93.40;;;;;;5006442;28;20523;-61
2021/03/31 06:52:52;;;;;;;13.53;7.90;;;6.20;93.20;;;;;;5023063;28;20445;-62
2021/03/31 06:55:17;;;;;;;12.50;7.90;;;6.40;92.80;;;;;;4999925;28;20451;-63
2021/03/31 06:57:51;;;;;;;23.30;8.80;;;6.50;92.70;;;;;;4998413;28;20446;-63
2021/03/31 07:00:27;;;;;;;18.33;7.60;;;6.60;92.60;;;;;;5006158;28;20180;-62
2021/03/31 07:02:53;;;;;;;16.30;9.10;;;6.70;92.70;;;;;;5004476;28;20808;-61
2021/03/31 07:05:20;;;;;;;15.70;7.90;;;6.80;92.70;;;;;;5016350;28;20505;-62
2021/03/31 07:07:46;;;;;;;12.67;7.67;;;6.90;92.90;;;;;;5023037;28;20428;-61
2021/03/31 07:10:16;;;;;;;14.67;8.30;;;7.10;92.80;;;;;;5019863;28;21009;-62
2021/03/31 07:12:46;;;;;;;23.63;7.80;;;7.30;91.70;;;;;;5003592;28;20176;-63
2021/03/31 07:15:14;;;;;;;21.83;9.00;;;7.40;90.80;;;;;;5003719;28;20458;-63
2021/03/31 07:17:42;;;;;;;25.67;8.50;;;7.60;90.80;;;;;;4997653;28;20439;-62
2021/03/31 07:20:09;;;;;;;17.80;9.10;;;7.60;90.30;;;;;;5000442;28;20449;-63
2021/03/31 07:22:35;;;;;;;20.10;8.30;;;7.70;89.70;;;;;;4999427;28;20568;-64
2021/03/31 07:25:01;;;;;;;18.40;7.50;;;7.70;89.10;;;;;;5001265;28;20587;-62
2021/03/31 07:27:28;;;;;;;15.03;8.27;;;7.70;89.80;;;;;;5012372;28;20538;-61
2021/03/31 07:30:11;;;;;;;18.73;8.30;;;7.80;90.40;;;;;;5000975;28;20435;-62
2021/03/31 07:32:44;;;;;;;17.47;8.27;;;7.90;90.30;;;;;;5003691;28;20466;-62
2021/03/31 07:35:11;;;;;;;17.60;8.50;;;8.00;89.70;;;;;;5006217;28;20522;-62
2021/03/31 07:37:37;;;;;;;19.30;8.33;;;8.20;90.00;;;;;;5021084;28;20511;-62
2021/03/31 07:40:07;;;;;;;15.60;9.00;;;8.30;89.80;;;;;;5007986;28;20487;-61
2021/03/31 07:42:33;;;;;;;20.73;9.53;;;8.30;88.90;;;;;;5006996;28;20435;-62
2021/03/31 07:45:02;;;;;;;19.13;8.43;;;8.40;90.00;;;;;;5027133;28;20426;-63
2021/03/31 07:47:29;;;;;;;19.33;8.60;;;8.50;88.60;;;;;;5025267;28;20427;-63
2021/03/31 07:49:55;;;;;;;23.33;9.33;;;8.60;87.30;;;;;;5023002;28;20443;-64
2021/03/31 07:52:21;;;;;;;24.03;9.70;;;8.70;86.30;;;;;;5043847;28;20436;-62
2021/03/31 07:54:47;;;;;;;29.60;10.43;;;8.80;86.30;;;;;;5026494;28;20444;-63
2021/03/31 07:57:24;;;;;;;23.03;11.20;;;8.90;85.20;;;;;;5030765;28;20208;-62
2021/03/31 07:59:50;;;;;;;22.27;10.77;;;9.10;83.60;;;;;;5025944;28;20201;-66
2021/03/31 08:02:16;;;;;;;35.07;12.00;;;9.20;82.70;;;;;;5027587;28;20499;-63
2021/03/31 08:04:42;;;;;;;27.87;10.47;;;9.30;82.80;;;;;;5010707;28;20679;-63
2021/03/31 08:07:29;;;;;;;26.07;10.97;;;9.50;81.70;;;;;;5006572;28;20207;-64
2021/03/31 08:10:31;;;;;;;29.20;10.67;;;9.60;79.20;;;;;;5005454;28;20184;-63
2021/03/31 08:13:34;;;;;;;25.73;10.00;;;9.70;80.10;;;;;;4996588;28;20510;-63
2021/03/31 08:16:20;;;;;;;25.17;9.87;;;9.90;79.10;;;;;;5015713;28;20982;-61
2021/03/31 08:18:47;;;;;;;20.70;9.80;;;10.10;77.20;;;;;;4999263;28;21532;-62
2021/03/31 08:21:21;;;;;;;28.33;10.10;;;10.20;76.30;;;;;;5004989;28;20936;-61
2021/03/31 08:23:48;;;;;;;25.33;11.33;;;10.40;76.30;;;;;;5000940;28;20439;-62
2021/03/31 08:26:29;;;;;;;22.60;10.00;;;10.50;76.20;;;;;;5008366;28;20451;-61
2021/03/31 08:28:56;;;;;;;18.73;10.43;;;10.60;75.50;;;;;;5000673;28;20435;-62
2021/03/31 08:31:25;;;;;;;26.30;11.33;;;10.80;74.80;;;;;;5009760;28;20525;-62
2021/03/31 08:33:51;;;;;;;28.73;12.63;;;11.00;73.90;;;;;;5010904;28;20534;-62
2021/03/31 08:36:17;;;;;;;23.40;11.30;;;11.10;72.20;;;;;;5003559;28;20526;-63
2021/03/31 08:38:55;;;;;;;32.33;10.50;;;11.40;70.60;;;;;;5007639;28;20576;-62
2021/03/31 08:41:23;;;;;;;25.40;11.33;;;11.60;68.40;;;;;;5002032;28;20168;-62
2021/03/31 08:43:50;;;;;;;29.90;11.87;;;11.80;67.00;;;;;;5003617;28;20432;-63
2021/03/31 08:46:31;;;;;;;26.67;11.70;;;12.00;66.60;;;;;;5004124;28;20443;-64
2021/03/31 08:48:57;;;;;;;28.63;11.00;;;12.30;71.10;;;;;;4998171;28;20519;-65
2021/03/31 08:51:24;;;;;;;24.03;10.53;;;12.60;69.20;;;;;;5003682;28;20557;-64
2021/03/31 08:53:50;;;;;;;17.97;10.00;;;12.90;66.40;;;;;;5021908;28;20437;-61
2021/03/31 08:56:18;;;;;;;31.43;10.20;;;13.20;63.10;;;;;;5014599;28;20463;-59
2021/03/31 08:58:46;;;;;;;25.53;10.80;;;13.40;57.50;;;;;;5006189;28;20799;-60
2021/03/31 09:01:11;;;;;;;24.87;11.33;;;13.60;55.10;;;;;;5006416;28;20485;-60
2021/03/31 09:03:37;;;;;;;25.90;11.57;;;13.80;53.90;;;;;;5011390;28;20434;-59
2021/03/31 09:06:03;;;;;;;30.80;11.47;;;14.00;53.40;;;;;;5001184;28;20215;-60
2021/03/31 09:08:30;;;;;;;26.50;12.30;;;14.30;52.60;;;;;;5000560;28;20176;-63
2021/03/31 09:11:04;;;;;;;25.10;11.67;;;14.50;51.20;;;;;;5009274;28;20931;-64
2021/03/31 09:13:34;;;;;;;28.37;11.10;;;14.70;50.60;;;;;;5005214;28;20530;-63
2021/03/31 09:16:02;;;;;;;27.03;11.60;;;14.90;50.40;;;;;;5005512;28;20443;-61
2021/03/31 09:18:28;;;;;;;24.70;10.70;;;15.10;50.60;;;;;;5016922;28;20454;-60
2021/03/31 09:20:54;;;;;;;23.40;10.73;;;15.30;50.90;;;;;;5007521;28;21100;-64
2021/03/31 09:23:26;;;;;;;26.90;10.67;;;15.50;50.80;;;;;;5006307;28;20423;-62
2021/03/31 09:26:03;;;;;;;23.70;10.77;;;15.70;50.30;;;;;;5024431;28;20202;-63
2021/03/31 09:28:31;;;;;;;34.17;11.27;;;15.90;49.90;;;;;;5010193;28;21002;-62
2021/03/31 09:31:06;;;;;;;26.90;11.87;;;16.10;49.00;;;;;;5012080;28;20711;-63
2021/03/31 09:33:36;;;;;;;26.80;10.10;;;16.30;48.00;;;;;;5008668;28;20450;-61
2021/03/31 09:36:20;;;;;;;30.03;11.70;;;16.60;47.80;;;;;;5013754;28;20447;-62
2021/03/31 09:38:46;;;;;;;19.80;9.60;;;16.80;47.00;;;;;;5011501;28;20520;-62
2021/03/31 09:41:12;;;;;;;32.27;11.43;;;16.90;46.40;;;;;;5011336;28;20427;-63
2021/03/31 09:43:38;;;;;;;27.47;12.30;;;17.00;46.70;;;;;;5007167;28;20463;-62
2021/03/31 09:46:06;;;;;;;31.27;12.77;;;17.10;46.60;;;;;;5012602;28;21022;-63
2021/03/31 09:48:35;;;;;;;25.17;13.30;;;17.20;46.70;;;;;;5004886;28;20443;-63
2021/03/31 09:51:11;;;;;;;22.20;11.97;;;17.30;46.60;;;;;;5001105;28;20875;-62
2021/03/31 09:53:36;;;;;;;29.90;12.87;;;17.50;45.20;;;;;;5011570;28;20423;-62
2021/03/31 09:56:04;;;;;;;24.87;12.23;;;17.60;44.30;;;;;;5009542;28;20447;-62
2021/03/31 09:58:29;;;;;;;25.37;11.50;;;17.80;44.30;;;;;;5008113;28;20220;-61
2021/03/31 10:00:55;;;;;;;36.27;13.13;;;17.90;43.90;;;;;;5012567;28;20485;-61
2021/03/31 10:03:24;;;;;;;28.73;12.47;;;18.00;43.60;;;;;;5011184;28;20419;-62
2021/03/31 10:05:50;;;;;;;29.17;12.53;;;18.10;44.10;;;;;;5006979;28;20455;-61
2021/03/31 10:08:22;;;;;;;24.27;12.43;;;18.30;44.60;;;;;;5011978;28;20530;-61
2021/03/31 10:10:51;;;;;;;26.60;12.70;;;18.40;43.50;;;;;;5010557;28;20580;-61
2021/03/31 10:13:19;;;;;;;35.90;12.77;;;18.50;41.40;;;;;;4995302;28;20710;-61
2021/03/31 10:15:54;;;;;;;33.00;12.50;;;18.60;43.20;;;;;;5002182;28;21034;-63
2021/03/31 10:18:21;;;;;;;23.80;11.57;;;18.80;43.30;;;;;;5013137;28;20454;-62
2021/03/31 10:20:48;;;;;;;25.80;11.30;;;18.90;43.00;;;;;;5010767;28;20479;-61
2021/03/31 10:23:25;;;;;;;21.80;11.23;;;19.10;42.90;;;;;;5014982;28;20423;-62
2021/03/31 10:25:51;;;;;;;25.60;10.17;;;19.20;43.20;;;;;;5011403;28;20529;-62
2021/03/31 10:28:37;;;;;;;24.73;10.70;;;19.40;42.00;;;;;;5025868;28;20463;-62
2021/03/31 10:31:33;;;;;;;21.13;11.40;;;19.50;41.70;;;;;;5008045;28;20427;-62
2021/03/31 10:33:59;;;;;;;26.10;11.83;;;19.70;40.20;;;;;;5001802;28;20458;-62
2021/03/31 12:16:42;;;;;;;19.60;10.17;;;24.60;34.40;;;;;;5052509;28;20582;-62
2021/03/31 12:19:07;;;;;;;24.23;11.90;;;24.60;35.40;;;;;;5035565;28;20487;-63
2021/03/31 12:21:33;;;;;;;23.33;10.37;;;24.70;36.20;;;;;;5051231;28;20660;-63
2021/03/31 12:23:59;;;;;;;19.20;10.90;;;24.70;35.70;;;;;;5030012;28;20180;-61
2021/03/31 12:26:24;;;;;;;18.80;10.07;;;24.80;35.30;;;;;;5035736;28;20641;-61
2021/03/31 12:28:51;;;;;;;29.87;11.07;;;24.90;34.90;;;;;;5035037;28;20258;-61
2021/03/31 12:31:18;;;;;;;31.20;10.40;;;25.00;34.80;;;;;;5037799;28;21358;-60
2021/03/31 12:33:43;;;;;;;22.83;11.20;;;25.00;34.90;;;;;;5041170;28;20444;-60
2021/03/31 12:36:09;;;;;;;22.13;11.93;;;25.10;32.60;;;;;;5040012;28;21048;-61
2021/03/31 12:38:35;;;;;;;22.77;11.20;;;25.00;33.50;;;;;;5039355;28;20191;-62
2021/03/31 12:41:03;;;;;;;21.47;12.33;;;25.00;34.70;;;;;;5037949;28;20210;-62
2021/03/31 12:43:29;;;;;;;26.10;11.90;;;25.10;34.20;;;;;;5033974;28;20183;-58
2021/03/31 12:45:55;;;;;;;23.87;11.87;;;25.20;34.10;;;;;;5029234;28;20468;-61
2021/03/31 12:48:21;;;;;;;19.80;10.27;;;25.30;34.20;;;;;;5036871;28;20179;-62
2021/03/31 12:50:48;;;;;;;23.97;12.70;;;25.50;34.30;;;;;;5040675;28;20180;-64
2021/03/31 12:53:24;;;;;;;24.13;11.47;;;25.70;33.90;;;;;;5037821;28;20194;-62
2021/03/31 12:55:52;;;;;;;26.60;10.60;;;25.70;32.50;;;;;;5033245;28;20995;-62
2021/03/31 12:58:20;;;;;;;21.60;10.40;;;25.90;33.50;;;;;;5034232;28;20507;-65
2021/03/31 13:00:46;;;;;;;28.20;11.97;;;26.00;33.00;;;;;;5034913;28;20493;-61
2021/03/31 13:03:12;;;;;;;29.00;11.90;;;26.10;33.10;;;;;;5035881;28;20511;-61
2021/03/31 13:05:39;;;;;;;23.97;12.53;;;26.20;33.50;;;;;;5037391;28;20990;-62
2021/03/31 13:08:07;;;;;;;24.73;13.17;;;26.30;32.40;;;;;;5036897;28;20450;-63
2021/03/31 13:10:33;;;;;;;24.40;12.80;;;26.30;31.60;;;;;;5035030;28;20433;-62
2021/03/31 13:13:14;;;;;;;25.30;12.10;;;26.10;32.70;;;;;;5037478;28;20440;-61
2021/03/31 13:16:01;;;;;;;29.57;14.30;;;26.30;33.80;;;;;;5032039;28;20213;-58
2021/03/31 13:29:20;;;;;;;26.33;12.50;;;26.40;31.40;;;;;;5026367;28;21121;-64
2021/03/31 13:32:22;;;;;;;19.57;11.00;;;26.50;31.80;;;;;;5028471;28;20466;-62
2021/03/31 13:34:45;;;;;;;24.37;11.80;;;26.50;30.80;;;;;;5026116;28;20466;-63
2021/03/31 13:37:18;;;;;;;21.03;11.57;;;26.30;30.70;;;;;;5024625;28;20453;-62
2021/03/31 13:39:49;;;;;;;22.80;11.33;;;25.90;30.90;;;;;;5033301;28;20488;-61
2021/03/31 13:42:15;;;;;;;20.80;9.90;;;25.80;32.70;;;;;;5026238;28;20426;-58
2021/03/31 13:44:40;;;;;;;23.03;13.07;;;25.60;32.80;;;;;;5021370;28;20445;-62
2021/03/31 13:47:09;;;;;;;18.83;11.10;;;25.60;33.90;;;;;;5027747;28;20210;-60
2021/03/31 13:49:52;;;;;;;27.20;14.53;;;25.60;34.00;;;;;;5022228;28;20234;-59
2021/03/31 13:52:22;;;;;;;24.40;13.07;;;25.60;33.40;;;;;;5019829;28;20446;-61
2021/03/31 13:54:58;;;;;;;27.70;12.37;;;25.60;33.00;;;;;;5025447;28;21008;-61
2021/03/31 13:57:26;;;;;;;24.77;11.70;;;25.60;31.70;;;;;;5027548;28;20542;-61
2021/03/31 13:59:53;;;;;;;16.47;10.07;;;25.40;31.50;;;;;;5021917;28;20450;-62
2021/03/31 14:02:19;;;;;;;17.80;11.10;;;25.40;32.50;;;;;;5017442;28;20422;-62
2021/03/31 14:04:45;;;;;;;19.93;11.70;;;25.20;31.70;;;;;;5020264;28;20932;-61
2021/03/31 14:07:11;;;;;;;25.07;11.13;;;25.10;33.60;;;;;;5023211;28;20208;-62
2021/03/31 14:09:37;;;;;;;27.40;11.73;;;25.20;34.10;;;;;;5024926;28;20299;-61
2021/03/31 14:12:03;;;;;;;20.43;10.00;;;25.20;34.20;;;;;;5030002;28;20164;-62
2021/03/31 14:14:29;;;;;;;24.50;10.60;;;25.20;33.90;;;;;;5023268;28;20434;-62
2021/03/31 14:17:03;;;;;;;24.20;11.07;;;25.20;32.60;;;;;;5023957;28;20550;-62
2021/03/31 14:19:37;;;;;;;23.13;11.70;;;25.20;32.20;;;;;;5019532;28;20278;-61
2021/03/31 14:22:03;;;;;;;23.97;11.87;;;25.00;32.60;;;;;;5021814;28;20435;-61
2021/03/31 14:24:28;;;;;;;21.73;11.30;;;24.80;33.20;;;;;;5014156;28;20435;-61
2021/03/31 14:26:54;;;;;;;20.33;9.80;;;24.80;34.10;;;;;;5017886;28;20442;-61
2021/03/31 14:29:19;;;;;;;19.13;10.57;;;24.80;33.10;;;;;;5015761;28;20683;-62
2021/03/31 14:31:45;;;;;;;21.57;9.80;;;24.90;33.80;;;;;;5021386;28;20194;-62
2021/03/31 14:34:11;;;;;;;18.57;10.13;;;24.90;33.20;;;;;;5019657;28;20177;-60
2021/03/31 14:36:37;;;;;;;35.03;14.43;;;24.90;32.20;;;;;;5023040;28;20467;-61
2021/03/31 14:39:08;;;;;;;18.63;10.50;;;24.80;33.20;;;;;;5021106;28;20701;-61
2021/03/31 14:41:34;;;;;;;17.90;10.27;;;24.80;33.60;;;;;;5016682;28;20183;-58
2021/03/31 14:44:00;;;;;;;23.97;11.93;;;24.80;33.10;;;;;;5021151;28;20435;-59
2021/03/31 14:46:26;;;;;;;22.50;10.83;;;24.80;34.00;;;;;;5022205;28;21005;-61
2021/03/31 14:48:51;;;;;;;21.03;10.90;;;24.80;33.00;;;;;;5024983;28;20180;-60